createdAt,value
2018-01-25T00:00:11.464Z,1020.44
2018-01-25T00:01:10.850Z,1020.44
2018-01-25T00:02:11.912Z,1020.43
2018-01-25T00:03:11.185Z,1020.42
2018-01-25T00:04:12.260Z,1020.4
2018-01-25T00:05:11.379Z,1020.4
2018-01-25T00:06:10.299Z,1020.35
2018-01-25T00:07:10.822Z,1020.33
2018-01-25T00:08:12.239Z,1020.37
2018-01-25T00:09:12.654Z,1020.36
2018-01-25T00:10:10.273Z,1020.37
2018-01-25T00:11:10.915Z,1020.4
2018-01-25T00:12:10.131Z,1020.37
2018-01-25T00:13:11.948Z,1020.4
2018-01-25T00:14:10.391Z,1020.37
2018-01-25T00:15:10.539Z,1020.29
2018-01-25T00:16:12.774Z,1020.37
2018-01-25T00:17:12.165Z,1020.34
2018-01-25T00:18:10.236Z,1020.35
2018-01-25T00:19:14.091Z,1020.34
2018-01-25T00:20:10.645Z,1020.33
2018-01-25T00:21:11.055Z,1020.35
2018-01-25T00:22:11.503Z,1020.35
2018-01-25T00:23:11.386Z,1020.33
2018-01-25T00:24:10.526Z,1020.29
2018-01-25T00:25:12.539Z,1020.34
2018-01-25T00:26:10.451Z,1020.36
2018-01-25T00:27:11.293Z,1020.36
2018-01-25T00:28:11.188Z,1020.39
2018-01-25T00:29:11.587Z,1020.38
2018-01-25T00:30:10.382Z,1020.48
2018-01-25T00:31:11.916Z,1020.44
2018-01-25T00:32:10.464Z,1020.48
2018-01-25T00:33:10.240Z,1020.47
2018-01-25T00:34:11.598Z,1020.38
2018-01-25T00:35:10.307Z,1020.4
2018-01-25T00:36:12.114Z,1020.34
2018-01-25T00:37:12.167Z,1020.34
2018-01-25T00:38:11.208Z,1020.37
2018-01-25T00:39:10.386Z,1020.36
2018-01-25T00:40:11.862Z,1020.39
2018-01-25T00:41:11.845Z,1020.38
2018-01-25T00:42:10.395Z,1020.37
2018-01-25T00:43:10.334Z,1020.41
2018-01-25T00:44:11.697Z,1020.34
2018-01-25T00:45:10.244Z,1020.28
2018-01-25T00:46:10.287Z,1020.23
2018-01-25T00:47:10.365Z,1020.27
2018-01-25T00:48:10.840Z,1020.28
2018-01-25T00:49:11.824Z,1020.25
2018-01-25T00:52:12.111Z,1020.21
2018-01-25T00:53:10.980Z,1020.24
2018-01-25T00:54:10.442Z,1020.13
2018-01-25T00:55:10.873Z,1020.16
2018-01-25T00:58:27.404Z,1020.12
2018-01-25T00:59:11.781Z,1020.1
2018-01-25T01:00:10.516Z,1020.09
2018-01-25T01:01:11.202Z,1020.09
2018-01-25T01:02:11.254Z,1020.06
2018-01-25T01:03:10.550Z,1020.11
2018-01-25T01:04:10.437Z,1020.12
2018-01-25T01:05:13.769Z,1020.02
2018-01-25T01:06:10.406Z,1020.02
2018-01-25T01:07:11.164Z,1020.01
2018-01-25T01:08:10.605Z,1020.03
2018-01-25T01:09:11.182Z,1020.03
2018-01-25T01:10:11.316Z,1020.03
2018-01-25T01:11:10.607Z,1020.01
2018-01-25T01:12:11.200Z,1020
2018-01-25T01:13:11.301Z,1019.97
2018-01-25T01:14:10.364Z,1019.9
2018-01-25T01:15:10.294Z,1019.91
2018-01-25T01:16:10.484Z,1019.87
2018-01-25T01:17:10.280Z,1019.84
2018-01-25T01:18:10.278Z,1019.88
2018-01-25T01:19:10.324Z,1019.88
2018-01-25T01:20:10.378Z,1019.85
2018-01-25T01:21:10.317Z,1019.86
2018-01-25T01:22:10.449Z,1019.85
2018-01-25T01:23:10.353Z,1019.8
2018-01-25T01:24:10.367Z,1019.78
2018-01-25T01:25:10.346Z,1019.82
2018-01-25T01:26:10.571Z,1019.79
2018-01-25T01:27:10.540Z,1019.72
2018-01-25T01:28:10.297Z,1019.77
2018-01-25T01:29:10.480Z,1019.6
2018-01-25T01:30:10.420Z,1019.71
2018-01-25T01:31:10.352Z,1019.74
2018-01-25T01:32:10.342Z,1019.72
2018-01-25T01:33:10.423Z,1019.72
2018-01-25T01:34:10.450Z,1019.73
2018-01-25T01:35:10.486Z,1019.67
2018-01-25T01:36:10.364Z,1019.62
2018-01-25T01:37:10.390Z,1019.66
2018-01-25T01:38:10.412Z,1019.71
2018-01-25T01:39:10.389Z,1019.72
2018-01-25T01:40:10.382Z,1019.58
2018-01-25T01:41:10.302Z,1019.62
2018-01-25T01:42:10.515Z,1019.63
2018-01-25T01:43:10.353Z,1019.6
2018-01-25T01:44:10.426Z,1019.57
2018-01-25T01:45:10.437Z,1019.58
2018-01-25T01:46:10.354Z,1019.53
2018-01-25T01:47:10.461Z,1019.53
2018-01-25T01:48:10.431Z,1019.52
2018-01-25T01:49:10.404Z,1019.53
2018-01-25T01:50:10.463Z,1019.51
2018-01-25T01:51:10.344Z,1019.49
2018-01-25T01:52:10.420Z,1019.46
2018-01-25T01:53:10.366Z,1019.53
2018-01-25T01:54:10.378Z,1019.46
2018-01-25T01:55:10.421Z,1019.51
2018-01-25T01:56:10.376Z,1019.51
2018-01-25T01:57:10.432Z,1019.53
2018-01-25T01:58:10.345Z,1019.52
2018-01-25T01:59:10.394Z,1019.52
2018-01-25T02:00:09.449Z,1019.51
2018-01-25T02:01:09.632Z,1019.49
2018-01-25T02:02:09.531Z,1019.47
2018-01-25T02:03:09.407Z,1019.45
2018-01-25T02:04:09.476Z,1019.48
2018-01-25T02:05:09.526Z,1019.47
2018-01-25T02:06:09.420Z,1019.48
2018-01-25T02:07:09.411Z,1019.48
2018-01-25T02:08:09.405Z,1019.48
2018-01-25T02:09:09.506Z,1019.43
2018-01-25T02:10:09.432Z,1019.43
2018-01-25T02:11:09.376Z,1019.46
2018-01-25T02:12:09.394Z,1019.42
2018-01-25T02:13:09.441Z,1019.45
2018-01-25T02:14:09.397Z,1019.45
2018-01-25T02:15:09.397Z,1019.39
2018-01-25T02:16:09.434Z,1019.38
2018-01-25T02:17:09.513Z,1019.36
2018-01-25T02:18:09.414Z,1019.38
2018-01-25T02:19:09.541Z,1019.42
2018-01-25T02:20:09.401Z,1019.39
2018-01-25T02:21:09.466Z,1019.38
2018-01-25T02:22:09.515Z,1019.39
2018-01-25T02:23:09.457Z,1019.35
2018-01-25T02:24:10.117Z,1019.38
2018-01-25T02:25:09.539Z,1019.34
2018-01-25T02:26:09.471Z,1019.38
2018-01-25T02:27:09.567Z,1019.35
2018-01-25T02:28:09.627Z,1019.3
2018-01-25T02:29:09.511Z,1019.27
2018-01-25T02:30:09.694Z,1019.3
2018-01-25T02:31:09.656Z,1019.3
2018-01-25T02:32:09.549Z,1019.35
2018-01-25T02:33:09.550Z,1019.29
2018-01-25T02:34:09.472Z,1019.34
2018-01-25T02:35:09.576Z,1019.31
2018-01-25T02:36:09.401Z,1019.35
2018-01-25T02:37:09.447Z,1019.31
2018-01-25T02:39:22.432Z,1019.42
2018-01-25T02:40:09.474Z,1019.33
2018-01-25T02:41:09.459Z,1019.3
2018-01-25T02:42:09.535Z,1019.39
2018-01-25T02:43:09.502Z,1019.33
2018-01-25T02:44:09.563Z,1019.32
2018-01-25T02:45:09.444Z,1019.34
2018-01-25T02:46:09.562Z,1019.28
2018-01-25T02:47:09.493Z,1019.29
2018-01-25T02:48:09.488Z,1019.27
2018-01-25T02:49:09.526Z,1019.29
2018-01-25T02:50:09.468Z,1019.3
2018-01-25T02:51:09.562Z,1019.32
2018-01-25T02:52:09.515Z,1019.31
2018-01-25T02:53:09.493Z,1019.29
2018-01-25T02:54:09.497Z,1019.32
2018-01-25T02:55:09.467Z,1019.3
2018-01-25T02:56:09.494Z,1019.32
2018-01-25T02:57:09.515Z,1019.33
2018-01-25T02:58:09.462Z,1019.3
2018-01-25T02:59:09.443Z,1019.29
2018-01-25T03:00:09.552Z,1019.28
2018-01-25T03:01:09.469Z,1019.25
2018-01-25T03:02:09.588Z,1019.3
2018-01-25T03:03:09.850Z,1019.31
2018-01-25T03:04:09.526Z,1019.26
2018-01-25T03:05:09.535Z,1019.23
2018-01-25T03:06:09.590Z,1019.23
2018-01-25T03:07:09.598Z,1019.22
2018-01-25T03:08:09.521Z,1019.27
2018-01-25T03:09:09.472Z,1019.25
2018-01-25T03:10:09.454Z,1019.22
2018-01-25T03:11:09.523Z,1019.21
2018-01-25T03:12:09.606Z,1019.23
2018-01-25T03:13:09.575Z,1019.17
2018-01-25T03:14:09.508Z,1019.13
2018-01-25T03:15:09.581Z,1019.14
2018-01-25T03:16:09.559Z,1019.15
2018-01-25T03:17:09.516Z,1019.16
2018-01-25T03:18:09.488Z,1019.16
2018-01-25T03:19:09.621Z,1019.15
2018-01-25T03:20:09.562Z,1019.14
2018-01-25T03:21:09.609Z,1019.11
2018-01-25T03:22:09.544Z,1019.08
2018-01-25T03:23:09.575Z,1019.06
2018-01-25T03:24:09.567Z,1019.04
2018-01-25T03:25:09.552Z,1019.02
2018-01-25T03:26:09.595Z,1019.04
2018-01-25T03:27:09.579Z,1019.01
2018-01-25T03:28:09.547Z,1019.05
2018-01-25T03:29:09.586Z,1019.01
2018-01-25T03:30:09.658Z,1018.97
2018-01-25T03:31:09.558Z,1019.01
2018-01-25T03:32:09.624Z,1018.97
2018-01-25T03:33:09.687Z,1018.95
2018-01-25T03:34:09.644Z,1018.98
2018-01-25T03:35:09.681Z,1018.94
2018-01-25T03:36:09.683Z,1018.96
2018-01-25T03:37:10.472Z,1018.98
2018-01-25T03:38:09.567Z,1019.01
2018-01-25T03:39:09.515Z,1019.04
2018-01-25T03:40:09.673Z,1019
2018-01-25T03:41:09.631Z,1019
2018-01-25T03:43:12.163Z,1019.08
2018-01-25T03:44:09.585Z,1019.05
2018-01-25T03:45:09.641Z,1019.06
2018-01-25T03:46:09.613Z,1019.07
2018-01-25T03:47:09.654Z,1019.05
2018-01-25T03:48:09.530Z,1019.06
2018-01-25T03:50:09.610Z,1019.06
2018-01-25T03:53:25.595Z,1019.02
2018-01-25T03:54:09.660Z,1019.09
2018-01-25T03:55:09.708Z,1019.04
2018-01-25T03:56:09.581Z,1019.11
2018-01-25T03:57:09.601Z,1019.14
2018-01-25T03:58:09.592Z,1019.14
2018-01-25T03:59:09.684Z,1019.14
2018-01-25T04:00:09.720Z,1019.15
2018-01-25T04:01:09.783Z,1019.14
2018-01-25T04:02:09.582Z,1019.17
2018-01-25T04:03:09.699Z,1019.16
2018-01-25T04:04:09.788Z,1019.19
2018-01-25T04:05:09.659Z,1019.17
2018-01-25T04:06:09.657Z,1019.16
2018-01-25T04:07:09.726Z,1019.17
2018-01-25T04:08:09.649Z,1019.12
2018-01-25T04:09:09.621Z,1019.13
2018-01-25T04:10:09.636Z,1019.15
2018-01-25T04:11:09.653Z,1019.13
2018-01-25T04:12:09.726Z,1019.08
2018-01-25T04:13:09.585Z,1019.13
2018-01-25T04:14:09.613Z,1019.09
2018-01-25T04:15:09.703Z,1019.07
2018-01-25T04:16:09.739Z,1019.06
2018-01-25T04:17:09.701Z,1019.11
2018-01-25T04:18:09.719Z,1019.11
2018-01-25T04:19:09.627Z,1019.11
2018-01-25T04:20:09.652Z,1019.16
2018-01-25T04:21:09.706Z,1019.13
2018-01-25T04:22:09.863Z,1019.16
2018-01-25T04:23:09.601Z,1019.12
2018-01-25T04:24:09.649Z,1019.14
2018-01-25T04:25:09.667Z,1019.14
2018-01-25T04:26:09.680Z,1019.2
2018-01-25T04:27:09.625Z,1019.19
2018-01-25T04:28:09.698Z,1019.24
2018-01-25T04:29:09.660Z,1019.19
2018-01-25T04:30:10.726Z,1019.26
2018-01-25T04:31:10.758Z,1019.25
2018-01-25T04:32:10.919Z,1019.2
2018-01-25T04:33:09.751Z,1019.31
2018-01-25T04:34:09.672Z,1019.23
2018-01-25T04:35:09.684Z,1019.24
2018-01-25T04:36:09.641Z,1019.22
2018-01-25T04:37:09.775Z,1019.27
2018-01-25T04:38:09.814Z,1019.21
2018-01-25T04:39:09.733Z,1019.21
2018-01-25T04:40:09.602Z,1019.21
2018-01-25T04:41:09.702Z,1019.25
2018-01-25T04:42:09.744Z,1019.23
2018-01-25T04:43:09.711Z,1019.18
2018-01-25T04:44:09.639Z,1019.24
2018-01-25T04:45:09.755Z,1019.22
2018-01-25T04:46:09.762Z,1019.26
2018-01-25T04:47:09.752Z,1019.23
2018-01-25T04:48:09.747Z,1019.19
2018-01-25T04:49:09.732Z,1019.2
2018-01-25T04:50:09.696Z,1019.19
2018-01-25T04:51:09.691Z,1019.22
2018-01-25T04:52:09.685Z,1019.16
2018-01-25T04:53:09.734Z,1019.18
2018-01-25T04:54:09.750Z,1019.17
2018-01-25T04:55:09.730Z,1019.19
2018-01-25T04:56:09.879Z,1019.16
2018-01-25T04:57:09.787Z,1019.19
2018-01-25T04:58:09.663Z,1019.18
2018-01-25T04:59:09.745Z,1019.18
2018-01-25T05:00:09.732Z,1019.18
2018-01-25T05:01:09.729Z,1019.17
2018-01-25T05:02:09.666Z,1019.22
2018-01-25T05:03:09.758Z,1019.21
2018-01-25T05:04:09.702Z,1019.19
2018-01-25T05:05:09.873Z,1019.22
2018-01-25T05:06:09.800Z,1019.19
2018-01-25T05:07:09.706Z,1019.22
2018-01-25T05:08:09.806Z,1019.2
2018-01-25T05:09:09.805Z,1019.2
2018-01-25T05:10:09.722Z,1019.21
2018-01-25T05:11:09.831Z,1019.25
2018-01-25T05:12:09.790Z,1019.2
2018-01-25T05:13:10.436Z,1019.17
2018-01-25T05:14:09.726Z,1019.21
2018-01-25T05:15:09.798Z,1019.18
2018-01-25T05:16:09.713Z,1019.21
2018-01-25T05:17:09.799Z,1019.17
2018-01-25T05:18:09.650Z,1019.17
2018-01-25T05:19:09.730Z,1019.2
2018-01-25T05:20:09.758Z,1019.18
2018-01-25T05:21:09.902Z,1019.2
2018-01-25T05:22:09.768Z,1019.16
2018-01-25T05:23:09.810Z,1019.15
2018-01-25T05:24:09.652Z,1019.17
2018-01-25T05:25:09.772Z,1019.11
2018-01-25T05:26:09.644Z,1019.14
2018-01-25T05:27:09.756Z,1019.12
2018-01-25T05:28:09.762Z,1019.08
2018-01-25T05:29:09.744Z,1019.11
2018-01-25T05:30:09.756Z,1019.08
2018-01-25T05:31:09.771Z,1019.12
2018-01-25T05:32:09.842Z,1019.11
2018-01-25T05:33:09.882Z,1019.06
2018-01-25T05:34:09.883Z,1019.09
2018-01-25T05:35:09.849Z,1019.1
2018-01-25T05:36:09.849Z,1019.07
2018-01-25T05:37:09.945Z,1019.08
2018-01-25T05:38:09.848Z,1019.1
2018-01-25T05:39:09.922Z,1019.14
2018-01-25T05:40:09.823Z,1019.08
2018-01-25T05:41:09.816Z,1019.06
2018-01-25T05:42:09.874Z,1019.14
2018-01-25T05:43:09.715Z,1019.14
2018-01-25T05:44:09.760Z,1019.1
2018-01-25T05:45:09.739Z,1019.12
2018-01-25T05:46:09.818Z,1019.09
2018-01-25T05:47:09.733Z,1019.12
2018-01-25T05:48:09.728Z,1019.11
2018-01-25T05:49:09.795Z,1019.04
2018-01-25T05:50:09.760Z,1019.05
2018-01-25T05:51:09.752Z,1019.07
2018-01-25T05:52:09.740Z,1019.03
2018-01-25T05:53:09.706Z,1019.08
2018-01-25T05:54:09.872Z,1019.05
2018-01-25T05:55:09.697Z,1019.05
2018-01-25T05:56:09.713Z,1019.09
2018-01-25T05:57:09.771Z,1019.1
2018-01-25T05:58:09.719Z,1019.09
2018-01-25T05:59:09.808Z,1019.13
2018-01-25T06:00:09.930Z,1019.11
2018-01-25T06:01:09.726Z,1019.11
2018-01-25T06:02:09.705Z,1019.1
2018-01-25T06:03:09.839Z,1019.09
2018-01-25T06:04:09.777Z,1019.09
2018-01-25T06:05:09.857Z,1019.12
2018-01-25T06:06:09.809Z,1019.1
2018-01-25T06:07:09.740Z,1019.13
2018-01-25T06:08:09.981Z,1019.12
2018-01-25T06:09:09.819Z,1019.22
2018-01-25T06:10:09.814Z,1019.18
2018-01-25T06:11:09.828Z,1019.2
2018-01-25T06:12:09.857Z,1019.21
2018-01-25T06:13:09.799Z,1019.16
2018-01-25T06:14:09.878Z,1019.22
2018-01-25T06:15:09.906Z,1019.2
2018-01-25T06:16:09.862Z,1019.25
2018-01-25T06:17:09.881Z,1019.16
2018-01-25T06:18:10.125Z,1019.17
2018-01-25T06:19:09.915Z,1019.2
2018-01-25T06:20:09.922Z,1019.15
2018-01-25T06:21:09.941Z,1019.18
2018-01-25T06:22:09.932Z,1019.15
2018-01-25T06:23:10.448Z,1019.18
2018-01-25T06:24:09.831Z,1019.15
2018-01-25T06:25:09.917Z,1019.16
2018-01-25T06:26:09.851Z,1019.16
2018-01-25T06:27:09.852Z,1019.15
2018-01-25T06:28:09.782Z,1019.15
2018-01-25T06:29:09.699Z,1019.13
2018-01-25T06:30:09.818Z,1019.09
2018-01-25T06:31:09.767Z,1019.09
2018-01-25T06:32:09.759Z,1019.12
2018-01-25T06:33:10.154Z,1019.12
2018-01-25T06:34:09.887Z,1019.11
2018-01-25T06:35:09.812Z,1019.1
2018-01-25T06:36:09.905Z,1019.11
2018-01-25T06:37:09.721Z,1019.09
2018-01-25T06:38:09.960Z,1019.14
2018-01-25T06:39:09.832Z,1019.13
2018-01-25T06:40:09.810Z,1019.06
2018-01-25T06:41:09.805Z,1019.07
2018-01-25T06:42:09.774Z,1019.12
2018-01-25T06:43:09.895Z,1019.09
2018-01-25T06:44:09.855Z,1019.15
2018-01-25T06:45:09.810Z,1019.15
2018-01-25T06:46:09.802Z,1019.07
2018-01-25T06:47:09.776Z,1019.17
2018-01-25T06:48:09.783Z,1019.14
2018-01-25T06:49:09.996Z,1019.12
2018-01-25T06:50:09.791Z,1019.13
2018-01-25T06:51:09.783Z,1019.15
2018-01-25T06:52:09.844Z,1019.16
2018-01-25T06:53:09.829Z,1019.13
2018-01-25T06:54:09.823Z,1019.13
2018-01-25T06:55:09.763Z,1019.09
2018-01-25T06:56:09.778Z,1019.1
2018-01-25T06:57:09.826Z,1019.02
2018-01-25T06:58:09.817Z,1019.01
2018-01-25T06:59:09.845Z,1018.98
2018-01-25T07:00:09.827Z,1018.98
2018-01-25T07:01:10.022Z,1018.97
2018-01-25T07:02:09.820Z,1018.97
2018-01-25T07:03:09.944Z,1018.93
2018-01-25T07:04:09.860Z,1018.97
2018-01-25T07:05:09.888Z,1018.98
2018-01-25T07:06:09.966Z,1019
2018-01-25T07:07:09.872Z,1018.99
2018-01-25T07:08:09.874Z,1018.98
2018-01-25T07:09:09.836Z,1018.98
2018-01-25T07:10:09.852Z,1018.99
2018-01-25T07:11:10.040Z,1019.01
2018-01-25T07:12:10.000Z,1019
2018-01-25T07:13:09.860Z,1018.94
2018-01-25T07:14:09.881Z,1018.96
2018-01-25T07:15:09.898Z,1019
2018-01-25T07:16:09.930Z,1018.98
2018-01-25T07:17:09.879Z,1018.91
2018-01-25T07:18:09.944Z,1018.91
2018-01-25T07:19:09.886Z,1018.91
2018-01-25T07:20:09.907Z,1018.95
2018-01-25T07:21:09.805Z,1018.92
2018-01-25T07:22:10.013Z,1018.91
2018-01-25T07:23:09.930Z,1018.93
2018-01-25T07:24:09.789Z,1018.89
2018-01-25T07:25:09.940Z,1018.9
2018-01-25T07:26:10.037Z,1018.82
2018-01-25T07:27:09.886Z,1018.93
2018-01-25T07:28:09.927Z,1018.89
2018-01-25T07:29:09.943Z,1018.92
2018-01-25T07:30:09.978Z,1018.95
2018-01-25T07:31:09.853Z,1018.95
2018-01-25T07:32:09.912Z,1018.95
2018-01-25T07:33:10.011Z,1018.91
2018-01-25T07:34:09.949Z,1018.93
2018-01-25T07:35:10.424Z,1018.89
2018-01-25T07:36:09.952Z,1018.92
2018-01-25T07:37:09.958Z,1018.9
2018-01-25T07:38:09.965Z,1018.97
2018-01-25T07:39:09.971Z,1018.97
2018-01-25T07:40:10.152Z,1018.98
2018-01-25T07:41:10.014Z,1019.02
2018-01-25T07:42:10.008Z,1019.01
2018-01-25T07:43:10.073Z,1019.04
2018-01-25T07:44:09.982Z,1019.03
2018-01-25T07:45:10.180Z,1019.06
2018-01-25T07:46:09.994Z,1019.08
2018-01-25T07:47:09.940Z,1019.11
2018-01-25T07:48:09.974Z,1019.09
2018-01-25T07:49:09.937Z,1019.1
2018-01-25T07:50:09.994Z,1019.11
2018-01-25T07:51:10.111Z,1019.07
2018-01-25T07:52:09.949Z,1019.09
2018-01-25T07:53:09.929Z,1019.05
2018-01-25T07:54:09.961Z,1019.03
2018-01-25T07:55:10.070Z,1019.12
2018-01-25T07:56:10.084Z,1019.07
2018-01-25T07:57:09.965Z,1019.05
2018-01-25T07:58:09.927Z,1019.09
2018-01-25T07:59:09.969Z,1019.11
2018-01-25T08:00:09.925Z,1019.07
2018-01-25T08:01:10.124Z,1019.04
2018-01-25T08:02:09.902Z,1019.09
2018-01-25T08:03:10.371Z,1019.07
2018-01-25T08:04:10.247Z,1019.09
2018-01-25T08:05:10.165Z,1019.1
2018-01-25T08:06:11.052Z,1019.09
2018-01-25T08:07:10.228Z,1019.11
2018-01-25T08:08:10.258Z,1019.08
2018-01-25T08:09:10.256Z,1019.09
2018-01-25T08:10:10.236Z,1019.05
2018-01-25T08:11:10.216Z,1019.01
2018-01-25T08:12:10.278Z,1018.99
2018-01-25T08:13:10.437Z,1018.99
2018-01-25T08:14:10.196Z,1018.97
2018-01-25T08:15:10.182Z,1019
2018-01-25T08:16:10.176Z,1019.05
2018-01-25T08:17:10.213Z,1019.03
2018-01-25T08:18:10.260Z,1018.98
2018-01-25T08:19:10.212Z,1019.06
2018-01-25T08:20:10.207Z,1019.06
2018-01-25T08:21:10.350Z,1019.04
2018-01-25T08:22:10.310Z,1019.03
2018-01-25T08:23:10.363Z,1019.08
2018-01-25T08:24:10.319Z,1019.11
2018-01-25T08:25:10.303Z,1019.07
2018-01-25T08:26:10.297Z,1019.1
2018-01-25T08:27:10.238Z,1019.13
2018-01-25T08:28:10.370Z,1019.14
2018-01-25T08:29:10.314Z,1019.09
2018-01-25T08:30:10.350Z,1019.07
2018-01-25T08:31:10.201Z,1019.09
2018-01-25T08:32:10.220Z,1019.1
2018-01-25T08:33:10.279Z,1019.16
2018-01-25T08:34:10.245Z,1019.16
2018-01-25T08:35:10.181Z,1019.18
2018-01-25T08:36:10.429Z,1019.13
2018-01-25T08:37:10.263Z,1019.13
2018-01-25T08:38:10.251Z,1019.18
2018-01-25T08:39:10.915Z,1019.12
2018-01-25T08:40:10.285Z,1019.16
2018-01-25T08:41:10.293Z,1019.14
2018-01-25T08:42:10.289Z,1019.14
2018-01-25T08:43:10.442Z,1019.15
2018-01-25T08:44:10.388Z,1019.16
2018-01-25T08:45:10.258Z,1019.12
2018-01-25T08:46:10.371Z,1019.16
2018-01-25T08:47:10.368Z,1019.12
2018-01-25T08:48:10.359Z,1019.15
2018-01-25T08:49:10.315Z,1019.12
2018-01-25T08:50:10.280Z,1019.13
2018-01-25T08:51:10.258Z,1019.13
2018-01-25T08:52:10.307Z,1019.13
2018-01-25T08:53:10.313Z,1019.11
2018-01-25T08:54:10.354Z,1019.1
2018-01-25T08:55:10.214Z,1019.08
2018-01-25T08:56:10.245Z,1019.02
2018-01-25T08:57:10.158Z,1019.08
2018-01-25T08:58:10.821Z,1019.09
2018-01-25T08:59:10.317Z,1019.17
2018-01-25T09:00:10.279Z,1019.09
2018-01-25T09:01:10.295Z,1019.09
2018-01-25T09:02:10.186Z,1019.11
2018-01-25T09:03:10.396Z,1019.1
2018-01-25T09:04:10.409Z,1019.22
2018-01-25T09:05:10.395Z,1019.12
2018-01-25T09:06:10.331Z,1019.14
2018-01-25T09:07:10.245Z,1019.12
2018-01-25T09:08:10.395Z,1019.15
2018-01-25T09:09:10.432Z,1019.13
2018-01-25T09:10:10.486Z,1019.14
2018-01-25T09:11:10.260Z,1019.14
2018-01-25T09:12:10.265Z,1019.18
2018-01-25T09:13:10.413Z,1019.19
2018-01-25T09:14:10.347Z,1019.15
2018-01-25T09:15:10.385Z,1019.15
2018-01-25T09:16:10.296Z,1019.21
2018-01-25T09:17:10.377Z,1019.2
2018-01-25T09:18:10.310Z,1019.25
2018-01-25T09:19:10.326Z,1019.25
2018-01-25T09:20:10.347Z,1019.24
2018-01-25T09:21:10.456Z,1019.24
2018-01-25T09:22:10.609Z,1019.24
2018-01-25T09:23:10.371Z,1019.24
2018-01-25T09:24:10.374Z,1019.23
2018-01-25T09:25:10.429Z,1019.28
2018-01-25T09:26:10.385Z,1019.31
2018-01-25T09:27:10.486Z,1019.31
2018-01-25T09:28:10.439Z,1019.33
2018-01-25T09:29:10.379Z,1019.33
2018-01-25T09:30:10.335Z,1019.29
2018-01-25T09:31:10.342Z,1019.35
2018-01-25T09:32:10.492Z,1019.34
2018-01-25T09:33:10.417Z,1019.29
2018-01-25T09:34:09.452Z,1019.32
2018-01-25T09:35:09.373Z,1019.29
2018-01-25T09:36:09.404Z,1019.29
2018-01-25T09:37:09.315Z,1019.26
2018-01-25T09:38:09.518Z,1019.24
2018-01-25T09:39:09.475Z,1019.29
2018-01-25T09:40:09.459Z,1019.3
2018-01-25T09:41:09.455Z,1019.28
2018-01-25T09:42:09.386Z,1019.28
2018-01-25T09:43:09.322Z,1019.33
2018-01-25T09:44:09.443Z,1019.35
2018-01-25T09:45:09.426Z,1019.26
2018-01-25T09:46:09.421Z,1019.33
2018-01-25T09:47:09.540Z,1019.33
2018-01-25T09:48:09.436Z,1019.36
2018-01-25T09:49:09.426Z,1019.36
2018-01-25T09:50:09.411Z,1019.37
2018-01-25T09:51:09.451Z,1019.39
2018-01-25T09:52:09.500Z,1019.42
2018-01-25T09:53:09.469Z,1019.37
2018-01-25T09:54:09.420Z,1019.39
2018-01-25T09:55:09.463Z,1019.4
2018-01-25T09:56:09.565Z,1019.4
2018-01-25T09:57:09.473Z,1019.45
2018-01-25T09:58:09.398Z,1019.43
2018-01-25T09:59:09.448Z,1019.42
2018-01-25T10:00:09.524Z,1019.42
2018-01-25T10:01:09.434Z,1019.45
2018-01-25T10:02:09.309Z,1019.39
2018-01-25T10:03:09.498Z,1019.45
2018-01-25T10:04:09.480Z,1019.4
2018-01-25T10:05:09.532Z,1019.41
2018-01-25T10:06:09.423Z,1019.38
2018-01-25T10:07:09.492Z,1019.45
2018-01-25T10:08:09.482Z,1019.41
2018-01-25T10:09:09.476Z,1019.4
2018-01-25T10:10:09.460Z,1019.41
2018-01-25T10:11:09.477Z,1019.39
2018-01-25T10:12:09.611Z,1019.39
2018-01-25T10:13:09.497Z,1019.36
2018-01-25T10:14:09.427Z,1019.36
2018-01-25T10:15:09.391Z,1019.4
2018-01-25T10:16:09.421Z,1019.36
2018-01-25T10:17:09.510Z,1019.33
2018-01-25T10:18:09.496Z,1019.33
2018-01-25T10:19:09.511Z,1019.32
2018-01-25T10:20:09.530Z,1019.35
2018-01-25T10:21:09.517Z,1019.28
2018-01-25T10:22:09.502Z,1019.28
2018-01-25T10:23:09.530Z,1019.31
2018-01-25T10:24:09.513Z,1019.27
2018-01-25T10:25:09.583Z,1019.34
2018-01-25T10:26:09.520Z,1019.32
2018-01-25T10:27:09.489Z,1019.23
2018-01-25T10:28:09.518Z,1019.28
2018-01-25T10:29:09.560Z,1019.23
2018-01-25T10:30:09.495Z,1019.26
2018-01-25T10:31:09.585Z,1019.27
2018-01-25T10:32:09.480Z,1019.2
2018-01-25T10:33:09.422Z,1019.21
2018-01-25T10:34:09.540Z,1019.18
2018-01-25T10:35:09.678Z,1019.2
2018-01-25T10:36:09.521Z,1019.16
2018-01-25T10:37:09.561Z,1019.14
2018-01-25T10:38:09.534Z,1019.12
2018-01-25T10:39:09.474Z,1019.13
2018-01-25T10:40:09.525Z,1019.1
2018-01-25T10:41:09.615Z,1019.08
2018-01-25T10:42:09.617Z,1019.08
2018-01-25T10:43:09.711Z,1019.04
2018-01-25T10:44:09.614Z,1019.08
2018-01-25T10:45:10.119Z,1019.03
2018-01-25T10:46:09.717Z,1018.98
2018-01-25T10:47:09.691Z,1018.97
2018-01-25T10:48:09.651Z,1018.98
2018-01-25T10:49:09.507Z,1019
2018-01-25T10:50:09.656Z,1018.93
2018-01-25T10:51:09.647Z,1018.95
2018-01-25T10:52:09.565Z,1018.94
2018-01-25T10:53:09.542Z,1018.93
2018-01-25T10:54:10.225Z,1018.87
2018-01-25T10:55:10.341Z,1018.86
2018-01-25T10:56:10.246Z,1018.86
2018-01-25T10:57:09.548Z,1018.84
2018-01-25T10:58:10.180Z,1018.8
2018-01-25T10:59:10.302Z,1018.82
2018-01-25T11:00:12.479Z,1018.81
2018-01-25T11:01:10.331Z,1018.81
2018-01-25T11:02:09.594Z,1018.8
2018-01-25T11:03:11.035Z,1018.83
2018-01-25T11:04:10.629Z,1018.81
2018-01-25T11:05:10.438Z,1018.8
2018-01-25T11:06:10.999Z,1018.86
2018-01-25T11:07:10.416Z,1018.83
2018-01-25T11:08:11.082Z,1018.83
2018-01-25T11:09:10.641Z,1018.75
2018-01-25T11:10:10.613Z,1018.75
2018-01-25T11:11:10.200Z,1018.73
2018-01-25T11:12:09.833Z,1018.75
2018-01-25T11:13:09.808Z,1018.68
2018-01-25T11:14:09.944Z,1018.63
2018-01-25T11:15:10.182Z,1018.63
2018-01-25T11:16:10.650Z,1018.62
2018-01-25T11:17:11.152Z,1018.64
2018-01-25T11:18:10.675Z,1018.54
2018-01-25T11:19:09.854Z,1018.51
2018-01-25T11:20:11.188Z,1018.55
2018-01-25T11:21:13.469Z,1018.5
2018-01-25T11:22:09.907Z,1018.51
2018-01-25T11:23:10.956Z,1018.47
2018-01-25T11:24:09.790Z,1018.44
2018-01-25T11:25:09.855Z,1018.47
2018-01-25T11:26:10.854Z,1018.43
2018-01-25T11:27:13.000Z,1018.48
2018-01-25T11:28:11.453Z,1018.41
2018-01-25T11:29:10.450Z,1018.44
2018-01-25T11:30:10.568Z,1018.45
2018-01-25T11:31:11.264Z,1018.47
2018-01-25T11:32:11.963Z,1018.5
2018-01-25T11:33:09.902Z,1018.47
2018-01-25T11:34:10.031Z,1018.45
2018-01-25T11:35:10.643Z,1018.4
2018-01-25T11:36:10.080Z,1018.36
2018-01-25T11:37:09.879Z,1018.3
2018-01-25T11:38:09.890Z,1018.29
2018-01-25T11:39:10.539Z,1018.28
2018-01-25T11:40:09.939Z,1018.29
2018-01-25T11:41:09.991Z,1018.26
2018-01-25T11:42:09.927Z,1018.25
2018-01-25T11:43:09.913Z,1018.27
2018-01-25T11:44:09.863Z,1018.26
2018-01-25T11:45:09.884Z,1018.2
2018-01-25T11:46:09.932Z,1018.2
2018-01-25T11:47:09.762Z,1018.19
2018-01-25T11:48:09.948Z,1018.15
2018-01-25T11:49:09.901Z,1018.19
2018-01-25T11:50:09.804Z,1018.16
2018-01-25T11:51:09.894Z,1018.15
2018-01-25T11:52:09.894Z,1018.14
2018-01-25T11:53:09.926Z,1018.14
2018-01-25T11:54:09.842Z,1018.1
2018-01-25T11:55:09.903Z,1018.1
2018-01-25T11:56:09.966Z,1018.1
2018-01-25T11:57:09.879Z,1018.13
2018-01-25T11:58:09.953Z,1018.11
2018-01-25T11:59:09.855Z,1018.08
2018-01-25T12:00:09.810Z,1018.02
2018-01-25T12:01:09.801Z,1018.03
2018-01-25T12:02:09.926Z,1018.03
2018-01-25T12:03:10.002Z,1017.97
2018-01-25T12:04:10.146Z,1017.98
2018-01-25T12:05:10.089Z,1017.93
2018-01-25T12:06:10.159Z,1017.94
2018-01-25T12:07:10.189Z,1017.93
2018-01-25T12:08:10.215Z,1017.94
2018-01-25T12:09:10.196Z,1017.96
2018-01-25T12:10:10.090Z,1017.9
2018-01-25T12:11:10.161Z,1017.88
2018-01-25T12:12:10.108Z,1017.85
2018-01-25T12:13:10.151Z,1017.84
2018-01-25T12:14:10.252Z,1017.89
2018-01-25T12:15:10.121Z,1017.86
2018-01-25T12:16:10.229Z,1017.88
2018-01-25T12:17:10.178Z,1017.86